Time;durP1;ratioP1;P1;durP2;ratioP2;P2;SDS_P1;SDS_P2;PMS_P1;PMS_P2;Temp;Humidity;BMP_temperature;BMP_pressure;BME280_temperature;BME280_humidity;BME280_pressure;Samples;Min_cycle;Max_cycle;Signal;HPM_P1;HPM_P2
2022/07/29 00:02:04;;;;;;;2.05;1.67;;;26.70;52.50;;;;;;5059377;28;20124;-42
2022/07/29 00:04:29;;;;;;;2.17;1.80;;;26.70;52.50;;;;;;5061007;28;20021;-50
2022/07/29 00:06:55;;;;;;;2.63;2.22;;;26.70;52.60;;;;;;5061328;28;20051;-43
2022/07/29 00:09:20;;;;;;;2.10;1.77;;;26.70;52.50;;;;;;5055620;28;20053;-43
2022/07/29 00:11:46;;;;;;;2.45;1.95;;;26.70;52.50;;;;;;5063348;28;20060;-44
2022/07/29 00:14:12;;;;;;;3.17;1.90;;;26.70;52.60;;;;;;5055319;28;20474;-55
2022/07/29 00:16:38;;;;;;;2.03;1.80;;;26.70;52.50;;;;;;5052663;28;20029;-46
2022/07/29 00:19:04;;;;;;;2.30;1.80;;;26.70;52.60;;;;;;5051357;28;20025;-44
2022/07/29 00:21:30;;;;;;;3.42;1.88;;;26.70;52.70;;;;;;5058353;28;20280;-43
2022/07/29 00:23:56;;;;;;;2.50;1.70;;;26.70;52.60;;;;;;5060929;28;20033;-43
2022/07/29 00:26:21;;;;;;;3.15;2.05;;;26.70;52.60;;;;;;5052791;28;20036;-43
2022/07/29 00:28:47;;;;;;;2.88;2.17;;;26.70;52.60;;;;;;5054554;28;20032;-47
2022/07/29 00:31:13;;;;;;;2.33;2.10;;;26.70;52.70;;;;;;5045488;28;20112;-55
2022/07/29 00:33:38;;;;;;;2.67;2.13;;;26.70;52.70;;;;;;5053276;28;20035;-44
2022/07/29 00:36:04;;;;;;;2.65;2.00;;;26.70;52.70;;;;;;5059316;28;20043;-43
2022/07/29 00:38:30;;;;;;;2.05;1.80;;;26.70;53.10;;;;;;5056069;28;20036;-42
2022/07/29 00:40:55;;;;;;;3.25;2.10;;;26.60;53.10;;;;;;5055051;28;20110;-42
2022/07/29 00:43:21;;;;;;;2.83;1.80;;;26.60;53.00;;;;;;5055119;28;20452;-42
2022/07/29 00:45:47;;;;;;;1.85;1.58;;;26.70;53.00;;;;;;5058074;28;20039;-42
2022/07/29 00:48:12;;;;;;;1.92;1.65;;;26.70;52.90;;;;;;5057575;28;20025;-51
2022/07/29 00:50:38;;;;;;;3.15;1.65;;;26.60;52.70;;;;;;5053427;28;20083;-44
2022/07/29 00:53:07;;;;;;;2.58;1.67;;;26.60;52.70;;;;;;5056260;28;20116;-48
2022/07/29 00:55:32;;;;;;;3.17;1.90;;;26.70;52.80;;;;;;5061144;28;20032;-43
2022/07/29 00:57:58;;;;;;;1.75;1.58;;;26.70;52.80;;;;;;5054248;28;20036;-43
2022/07/29 01:00:26;;;;;;;3.28;2.35;;;26.70;52.80;;;;;;5065892;28;20038;-42
2022/07/29 01:02:52;;;;;;;2.90;1.80;;;26.70;52.80;;;;;;5056593;28;20107;-44
2022/07/29 01:05:22;;;;;;;4.05;1.98;;;26.70;52.80;;;;;;5057144;28;20533;-42
2022/07/29 01:07:51;;;;;;;3.13;2.05;;;26.60;53.00;;;;;;5057545;28;20029;-42
2022/07/29 01:10:19;;;;;;;5.43;1.95;;;26.60;53.00;;;;;;5051383;28;20130;-41
2022/07/29 01:12:47;;;;;;;2.40;1.80;;;26.60;53.00;;;;;;5057091;28;20103;-47
2022/07/29 01:15:14;;;;;;;2.95;1.90;;;26.70;53.10;;;;;;5056972;28;20029;-55
2022/07/29 01:18:06;;;;;;;2.60;1.80;;;26.70;53.10;;;;;;5062281;28;20017;-46
2022/07/29 01:20:50;;;;;;;1.70;1.50;;;26.60;53.00;;;;;;5054954;28;20025;-43
2022/07/29 01:23:52;;;;;;;3.40;2.40;;;26.60;53.20;;;;;;5058032;28;20480;-48
2022/07/29 01:26:18;;;;;;;2.80;2.15;;;26.60;53.10;;;;;;4969936;28;20050;-43
2022/07/29 01:29:19;;;;;;;2.00;1.80;;;26.60;53.00;;;;;;5045283;28;20036;-45
2022/07/29 01:32:07;;;;;;;3.17;1.52;;;26.70;53.10;;;;;;5052677;28;20036;-42
2022/07/29 01:34:42;;;;;;;2.03;1.77;;;26.60;52.90;;;;;;5061700;28;20029;-41
2022/07/29 01:37:35;;;;;;;2.05;1.85;;;26.60;53.20;;;;;;5050506;28;20075;-41
2022/07/29 01:40:04;;;;;;;1.90;1.70;;;26.60;53.50;;;;;;5058780;28;20031;-41
2022/07/29 01:42:41;;;;;;;2.47;2.00;;;26.60;53.30;;;;;;5056825;28;20040;-41
2022/07/29 01:45:44;;;;;;;2.15;1.70;;;26.60;53.30;;;;;;5051447;28;20079;-41
2022/07/29 01:48:31;;;;;;;3.65;1.90;;;26.60;53.30;;;;;;5047712;28;20028;-41
2022/07/29 01:51:19;;;;;;;4.13;2.00;;;26.60;53.30;;;;;;5054305;28;20095;-41
2022/07/29 01:53:59;;;;;;;2.22;1.52;;;26.60;53.30;;;;;;5052894;28;20068;-41
2022/07/29 01:56:29;;;;;;;2.03;1.70;;;26.60;53.50;;;;;;5055636;28;20123;-43
2022/07/29 01:58:56;;;;;;;2.53;2.10;;;26.60;53.50;;;;;;5058125;28;20037;-42
2022/07/29 02:01:25;;;;;;;2.28;1.52;;;26.60;53.40;;;;;;5053230;28;20475;-45
2022/07/29 02:03:52;;;;;;;2.25;1.50;;;26.60;53.50;;;;;;5054319;28;20029;-41
2022/07/29 02:06:21;;;;;;;2.75;1.60;;;26.60;54.10;;;;;;5059560;28;20033;-42
2022/07/29 02:08:49;;;;;;;2.35;1.80;;;26.60;53.50;;;;;;5057536;28;21849;-42
2022/07/29 02:11:15;;;;;;;2.25;1.73;;;26.60;53.60;;;;;;5060498;28;20046;-52
2022/07/29 02:13:42;;;;;;;2.67;1.92;;;26.60;53.50;;;;;;5060092;28;20095;-42
2022/07/29 02:16:10;;;;;;;2.35;1.75;;;26.60;53.60;;;;;;5062635;28;20036;-44
2022/07/29 02:18:38;;;;;;;2.15;1.92;;;26.60;53.50;;;;;;5057168;28;20101;-42
2022/07/29 02:21:05;;;;;;;2.42;1.73;;;26.60;53.50;;;;;;5052119;28;20394;-44
2022/07/29 02:23:32;;;;;;;2.10;1.90;;;26.60;53.50;;;;;;5056634;28;20033;-41
2022/07/29 02:25:59;;;;;;;2.10;1.83;;;26.60;53.50;;;;;;5059335;28;20025;-41
2022/07/29 02:28:27;;;;;;;1.73;1.60;;;26.60;53.50;;;;;;5051477;28;20086;-47
2022/07/29 02:30:58;;;;;;;2.03;1.83;;;26.60;53.50;;;;;;5049786;28;20029;-42
2022/07/29 02:33:25;;;;;;;2.05;1.50;;;26.60;53.50;;;;;;5053683;28;20155;-46
2022/07/29 02:35:52;;;;;;;2.03;1.80;;;26.60;53.50;;;;;;5058304;28;20037;-42
2022/07/29 02:41:18;;;;;;;1.70;1.50;;;26.60;53.50;;;;;;5058950;28;20036;-42
2022/07/29 02:43:47;;;;;;;2.00;1.58;;;26.60;53.30;;;;;;5049039;28;20492;-42
2022/07/29 02:46:18;;;;;;;1.70;1.60;;;26.60;53.30;;;;;;5051059;28;20044;-49
2022/07/29 02:48:59;;;;;;;1.30;1.20;;;26.60;53.30;;;;;;5050880;28;20470;-42
2022/07/29 02:51:42;;;;;;;1.70;1.50;;;26.60;53.40;;;;;;5055604;28;20037;-42
2022/07/29 02:54:10;;;;;;;2.65;1.75;;;26.60;53.30;;;;;;5056109;28;20067;-42
2022/07/29 02:56:37;;;;;;;2.00;1.73;;;26.60;53.30;;;;;;5051034;28;20039;-44
2022/07/29 02:59:09;;;;;;;1.55;1.45;;;26.60;53.20;;;;;;5048501;28;20036;-51
2022/07/29 03:01:38;;;;;;;2.58;1.73;;;26.60;53.20;;;;;;5056907;28;20100;-41
2022/07/29 03:04:05;;;;;;;2.13;1.63;;;26.60;53.10;;;;;;5055785;28;20089;-42
2022/07/29 03:06:34;;;;;;;2.10;1.65;;;26.60;53.10;;;;;;5061144;28;20060;-42
2022/07/29 03:09:00;;;;;;;2.88;1.45;;;26.60;53.00;;;;;;5061452;28;20106;-42
2022/07/29 03:11:26;;;;;;;1.52;1.23;;;26.60;53.00;;;;;;5054440;28;20032;-43
2022/07/29 03:13:52;;;;;;;1.65;1.33;;;26.60;53.00;;;;;;5060355;28;20044;-43
2022/07/29 03:16:19;;;;;;;1.65;1.45;;;26.70;53.10;;;;;;5055313;28;20556;-52
2022/07/29 03:18:46;;;;;;;1.85;1.65;;;26.70;53.10;;;;;;5056972;28;20033;-44
2022/07/29 03:21:12;;;;;;;2.30;1.60;;;26.70;53.10;;;;;;5053875;28;20033;-43
2022/07/29 03:23:42;;;;;;;3.35;2.25;;;26.60;53.40;;;;;;5039653;28;20623;-51
2022/07/29 03:26:08;;;;;;;2.75;2.03;;;26.30;56.00;;;;;;5054854;28;20032;-42
2022/07/29 03:28:34;;;;;;;2.42;1.98;;;26.00;56.60;;;;;;5056508;28;20039;-46
2022/07/29 03:31:00;;;;;;;3.03;1.95;;;25.90;57.10;;;;;;5058580;28;20031;-43
2022/07/29 03:33:28;;;;;;;2.88;2.38;;;25.70;57.80;;;;;;5057485;28;20037;-42
2022/07/29 03:35:54;;;;;;;3.55;2.25;;;25.60;57.90;;;;;;5057068;28;21636;-46
2022/07/29 03:38:23;;;;;;;3.88;2.20;;;25.60;58.20;;;;;;5053742;28;20039;-48
2022/07/29 03:40:56;;;;;;;2.15;1.95;;;25.50;58.50;;;;;;5052919;28;20770;-44
2022/07/29 03:43:24;;;;;;;3.85;1.92;;;25.40;58.50;;;;;;5054252;28;20152;-49
2022/07/29 03:45:53;;;;;;;2.95;2.22;;;25.40;58.60;;;;;;5055370;28;20036;-45
2022/07/29 03:48:21;;;;;;;3.58;1.52;;;25.30;58.80;;;;;;5050575;28;20028;-43
2022/07/29 03:50:48;;;;;;;3.83;2.20;;;25.30;59.00;;;;;;5057192;28;20029;-43
2022/07/29 03:53:14;;;;;;;3.08;2.17;;;25.20;59.20;;;;;;5052284;28;20474;-46
2022/07/29 03:55:50;;;;;;;3.42;2.00;;;25.20;59.30;;;;;;5042388;28;20086;-42
2022/07/29 03:58:18;;;;;;;2.97;2.05;;;25.20;59.50;;;;;;5055255;28;20127;-54
2022/07/29 04:00:44;;;;;;;2.40;2.13;;;25.10;59.70;;;;;;5062032;28;20029;-42
2022/07/29 04:03:10;;;;;;;2.90;1.90;;;25.00;59.80;;;;;;5058212;28;20104;-43
2022/07/29 04:05:36;;;;;;;2.38;1.80;;;25.00;60.00;;;;;;5059738;28;20032;-43
2022/07/29 04:08:01;;;;;;;3.13;1.80;;;25.00;60.00;;;;;;5055778;28;20075;-47
2022/07/29 04:10:27;;;;;;;2.58;2.05;;;25.00;60.30;;;;;;5059477;28;20059;-43
2022/07/29 04:12:54;;;;;;;2.58;2.00;;;25.00;60.30;;;;;;5062196;28;20522;-44
2022/07/29 04:15:20;;;;;;;4.82;2.47;;;24.90;60.30;;;;;;5053043;28;20053;-46
2022/07/29 04:17:45;;;;;;;4.60;1.95;;;24.90;60.30;;;;;;5050771;28;20452;-44
2022/07/29 04:20:14;;;;;;;3.85;1.95;;;24.90;60.30;;;;;;5056402;28;20099;-42
2022/07/29 04:22:40;;;;;;;3.83;1.95;;;24.90;60.30;;;;;;5051294;28;20470;-48
2022/07/29 04:25:06;;;;;;;2.78;2.17;;;24.90;60.30;;;;;;5054069;28;20060;-45
2022/07/29 04:27:32;;;;;;;2.38;1.70;;;25.00;60.30;;;;;;5055836;28;20501;-53
2022/07/29 04:29:57;;;;;;;2.38;2.15;;;24.90;60.20;;;;;;5056648;28;20059;-42
2022/07/29 04:32:24;;;;;;;2.17;1.80;;;24.90;60.30;;;;;;5056741;28;20029;-46
2022/07/29 04:34:49;;;;;;;2.70;1.98;;;24.80;60.40;;;;;;5056667;28;20453;-42
2022/07/29 04:37:15;;;;;;;2.13;1.83;;;24.80;60.50;;;;;;5052270;28;20108;-53
2022/07/29 04:39:40;;;;;;;3.25;1.80;;;24.80;60.70;;;;;;5051321;28;20032;-44
2022/07/29 04:42:06;;;;;;;2.38;1.90;;;24.80;60.90;;;;;;5058936;28;20032;-43
2022/07/29 04:44:32;;;;;;;1.83;1.63;;;24.70;60.90;;;;;;5058837;28;20053;-42
2022/07/29 04:46:57;;;;;;;3.00;1.80;;;24.70;61.00;;;;;;5049018;28;20037;-42
2022/07/29 04:49:23;;;;;;;2.75;2.38;;;24.80;60.80;;;;;;5048878;28;20035;-44
2022/07/29 04:51:49;;;;;;;2.38;1.80;;;24.70;61.20;;;;;;5053884;28;20108;-42
2022/07/29 04:54:14;;;;;;;4.45;2.25;;;24.70;60.70;;;;;;5053982;28;20519;-54
2022/07/29 04:56:41;;;;;;;2.17;1.98;;;24.70;60.60;;;;;;5057747;28;20049;-43
2022/07/29 04:59:07;;;;;;;4.80;1.83;;;24.70;60.50;;;;;;5051270;28;20068;-43
2022/07/29 05:01:32;;;;;;;4.35;2.90;;;24.70;60.70;;;;;;5056547;28;20052;-44
2022/07/29 05:03:58;;;;;;;2.20;1.80;;;24.70;60.50;;;;;;5054857;28;20029;-43
2022/07/29 05:06:23;;;;;;;3.15;1.77;;;24.70;60.40;;;;;;5052328;28;20029;-45
2022/07/29 05:08:49;;;;;;;3.17;1.92;;;24.70;60.30;;;;;;5054186;28;20043;-44
2022/07/29 05:11:15;;;;;;;2.15;1.70;;;24.80;60.20;;;;;;5058802;28;20079;-53
2022/07/29 05:13:40;;;;;;;3.70;2.25;;;24.80;60.20;;;;;;5057638;28;20033;-42
2022/07/29 05:16:08;;;;;;;2.65;1.77;;;24.70;60.10;;;;;;5053873;28;20118;-43
2022/07/29 05:18:33;;;;;;;3.20;2.00;;;24.70;60.00;;;;;;5056358;28;20083;-43
2022/07/29 05:20:59;;;;;;;2.33;1.60;;;24.80;60.10;;;;;;5061535;28;20382;-44
2022/07/29 05:23:25;;;;;;;2.03;1.42;;;24.80;60.20;;;;;;5051881;28;20029;-44
2022/07/29 05:25:50;;;;;;;2.47;1.80;;;24.70;60.20;;;;;;5055272;28;20029;-43
2022/07/29 05:28:16;;;;;;;4.93;1.80;;;24.80;60.00;;;;;;5053104;28;20490;-54
2022/07/29 05:30:42;;;;;;;2.28;1.95;;;24.80;60.00;;;;;;5054617;28;20056;-43
2022/07/29 05:33:07;;;;;;;1.55;1.30;;;24.80;59.90;;;;;;5051981;28;20025;-43
2022/07/29 05:35:34;;;;;;;4.05;1.88;;;24.80;59.60;;;;;;5051974;28;20136;-42
2022/07/29 05:38:00;;;;;;;3.53;1.70;;;24.80;59.50;;;;;;5055255;28;20029;-42
2022/07/29 05:40:26;;;;;;;2.08;1.73;;;24.80;59.50;;;;;;5059162;28;20040;-42
2022/07/29 05:42:51;;;;;;;2.22;1.85;;;24.80;59.70;;;;;;5059316;28;20048;-46
2022/07/29 05:45:17;;;;;;;1.77;1.52;;;24.80;59.60;;;;;;5053480;28;20057;-53
2022/07/29 05:47:42;;;;;;;3.40;1.67;;;24.90;59.40;;;;;;5031874;28;20492;-43
2022/07/29 05:50:08;;;;;;;1.90;1.40;;;24.90;59.00;;;;;;5051553;28;20029;-42
2022/07/29 05:52:34;;;;;;;2.45;1.67;;;24.90;59.00;;;;;;5051709;28;20024;-45
2022/07/29 05:55:02;;;;;;;1.60;1.30;;;24.80;58.50;;;;;;5051999;28;20025;-42
2022/07/29 05:57:28;;;;;;;1.42;1.13;;;24.90;58.70;;;;;;5054113;28;20028;-45
2022/07/29 05:59:53;;;;;;;1.98;1.33;;;25.00;58.60;;;;;;5058745;28;20025;-43
2022/07/29 06:02:19;;;;;;;2.45;1.42;;;25.00;58.50;;;;;;5053303;28;20029;-53
2022/07/29 06:04:45;;;;;;;2.55;1.30;;;25.00;58.50;;;;;;5050021;28;20116;-42
2022/07/29 06:07:11;;;;;;;1.27;1.10;;;25.00;58.40;;;;;;5055360;28;20107;-44
2022/07/29 06:09:36;;;;;;;4.05;1.40;;;25.10;58.40;;;;;;5052380;28;20091;-43
2022/07/29 06:12:03;;;;;;;2.35;1.40;;;25.10;58.70;;;;;;5060724;28;20021;-42
2022/07/29 06:14:28;;;;;;;4.45;1.48;;;25.10;58.80;;;;;;5052010;28;20083;-42
2022/07/29 06:16:55;;;;;;;2.65;1.60;;;25.20;58.80;;;;;;5053015;28;20037;-48
2022/07/29 06:19:20;;;;;;;1.50;1.40;;;25.20;58.90;;;;;;5051223;28;20486;-50
2022/07/29 06:21:47;;;;;;;1.30;1.20;;;25.30;58.70;;;;;;5056263;28;20029;-42
2022/07/29 06:24:14;;;;;;;1.95;1.45;;;25.30;58.40;;;;;;5055023;28;20037;-43
2022/07/29 06:26:40;;;;;;;2.55;2.30;;;25.30;58.30;;;;;;5049668;28;20032;-43
2022/07/29 06:29:07;;;;;;;1.48;1.38;;;25.40;58.20;;;;;;5050810;28;20470;-42
2022/07/29 06:31:32;;;;;;;1.70;1.48;;;25.40;58.00;;;;;;5053339;28;20127;-43
2022/07/29 06:33:58;;;;;;;3.42;1.73;;;25.30;58.00;;;;;;5053680;28;20120;-45
2022/07/29 06:36:23;;;;;;;6.57;1.65;;;25.40;58.00;;;;;;5049322;28;20040;-43
2022/07/29 06:38:49;;;;;;;3.90;1.52;;;25.40;58.50;;;;;;5053354;28;20033;-43
2022/07/29 06:41:15;;;;;;;1.50;1.20;;;25.50;57.70;;;;;;5062197;28;20480;-42
2022/07/29 06:43:43;;;;;;;2.10;1.52;;;25.60;57.60;;;;;;5058749;28;20035;-43
2022/07/29 06:46:12;;;;;;;2.00;1.73;;;25.60;57.40;;;;;;5056830;28;20373;-42
2022/07/29 06:48:38;;;;;;;1.60;1.40;;;25.70;57.30;;;;;;5061874;28;20029;-42
2022/07/29 06:51:05;;;;;;;5.15;1.52;;;25.70;57.30;;;;;;5057734;28;20028;-41
2022/07/29 06:53:32;;;;;;;1.35;1.20;;;25.80;57.00;;;;;;5055451;28;20082;-42
2022/07/29 06:55:59;;;;;;;1.92;1.60;;;25.90;56.90;;;;;;5054865;28;20376;-42
2022/07/29 06:58:26;;;;;;;1.80;1.42;;;25.90;56.80;;;;;;5053465;28;20382;-42
2022/07/29 07:00:51;;;;;;;2.90;1.60;;;26.00;56.80;;;;;;5059618;28;20195;-42
2022/07/29 07:03:18;;;;;;;2.10;1.30;;;26.00;56.80;;;;;;5051575;28;20522;-51
2022/07/29 07:05:44;;;;;;;1.65;1.50;;;26.00;56.70;;;;;;5060716;28;20056;-45
2022/07/29 07:08:11;;;;;;;3.28;1.73;;;26.00;56.70;;;;;;5055110;28;20036;-45
2022/07/29 07:10:37;;;;;;;1.70;1.50;;;26.00;56.60;;;;;;5058087;28;20342;-42
2022/07/29 07:13:04;;;;;;;1.65;1.30;;;26.10;56.60;;;;;;5065011;28;20029;-42
2022/07/29 07:15:30;;;;;;;2.20;1.52;;;26.10;56.50;;;;;;5054947;28;20115;-47
2022/07/29 07:17:55;;;;;;;2.53;1.60;;;26.10;56.40;;;;;;5054790;28;20833;-44
2022/07/29 07:20:21;;;;;;;2.20;1.50;;;26.10;56.30;;;;;;5055580;28;20466;-52
2022/07/29 07:22:47;;;;;;;2.00;1.60;;;26.10;56.20;;;;;;5065279;28;20384;-42
2022/07/29 07:25:12;;;;;;;3.13;1.70;;;26.10;56.20;;;;;;5061655;28;20443;-42
2022/07/29 07:27:39;;;;;;;4.25;2.47;;;26.20;56.30;;;;;;5057005;28;20126;-42
2022/07/29 07:30:06;;;;;;;1.90;1.40;;;26.20;56.30;;;;;;5064345;28;20366;-43
2022/07/29 07:32:35;;;;;;;2.78;1.52;;;26.20;56.20;;;;;;5055633;28;20037;-42
2022/07/29 07:35:01;;;;;;;3.08;1.65;;;26.20;56.10;;;;;;5067688;28;20470;-43
2022/07/29 07:37:27;;;;;;;1.40;1.20;;;26.20;56.10;;;;;;5056920;28;20171;-44
2022/07/29 07:39:53;;;;;;;2.67;1.80;;;26.20;56.00;;;;;;5064013;28;20033;-43
2022/07/29 07:42:19;;;;;;;5.43;1.50;;;26.20;55.90;;;;;;5063699;28;20111;-52
2022/07/29 07:44:45;;;;;;;2.58;1.60;;;26.30;56.00;;;;;;5054442;28;20033;-42
2022/07/29 07:47:12;;;;;;;3.47;1.95;;;26.30;56.70;;;;;;5059945;28;20029;-42
2022/07/29 07:49:38;;;;;;;4.28;1.73;;;26.20;56.60;;;;;;5054900;28;20768;-42
2022/07/29 07:52:04;;;;;;;2.92;1.67;;;26.30;56.70;;;;;;5058473;28;20035;-43
2022/07/29 07:54:29;;;;;;;1.63;1.50;;;26.30;56.70;;;;;;5053739;28;20063;-43
2022/07/29 07:56:55;;;;;;;1.98;1.50;;;26.30;56.60;;;;;;5055733;28;20025;-49
2022/07/29 07:59:21;;;;;;;2.40;1.90;;;26.30;56.20;;;;;;5035611;28;20033;-54
2022/07/29 08:01:46;;;;;;;2.28;1.60;;;26.30;56.60;;;;;;5055353;28;20028;-43
2022/07/29 08:04:12;;;;;;;2.33;1.50;;;26.30;56.00;;;;;;5052875;28;20028;-43
2022/07/29 08:06:37;;;;;;;2.25;1.70;;;26.30;56.20;;;;;;5051913;28;20433;-43
2022/07/29 08:09:04;;;;;;;1.85;1.40;;;26.40;56.20;;;;;;5054548;28;20124;-43
2022/07/29 08:11:30;;;;;;;5.05;1.52;;;26.40;56.30;;;;;;5051161;28;20474;-52
2022/07/29 08:13:56;;;;;;;3.35;1.85;;;26.40;56.50;;;;;;5055668;28;20039;-43
2022/07/29 08:16:22;;;;;;;3.22;1.85;;;26.40;56.50;;;;;;5055536;28;20037;-43
2022/07/29 08:18:47;;;;;;;5.22;1.92;;;26.40;56.70;;;;;;5054549;28;20120;-41
2022/07/29 08:21:15;;;;;;;2.75;1.70;;;26.40;56.90;;;;;;5052561;28;20414;-49
2022/07/29 08:23:52;;;;;;;2.45;1.52;;;26.40;56.90;;;;;;5056589;28;20040;-47
2022/07/29 08:26:19;;;;;;;2.97;1.80;;;26.40;56.70;;;;;;5055691;28;20037;-42
2022/07/29 08:28:49;;;;;;;2.40;1.50;;;26.40;56.70;;;;;;5056334;28;20741;-42
2022/07/29 08:31:15;;;;;;;3.08;2.10;;;26.40;56.70;;;;;;5053023;28;20382;-44
2022/07/29 08:33:41;;;;;;;6.68;1.92;;;26.40;56.60;;;;;;5049546;28;20096;-44
2022/07/29 08:36:07;;;;;;;8.82;1.80;;;26.50;56.80;;;;;;5053007;28;20120;-42
2022/07/29 08:38:32;;;;;;;4.90;1.83;;;26.40;56.60;;;;;;5050188;28;20107;-42
2022/07/29 08:41:00;;;;;;;4.80;1.73;;;26.50;56.60;;;;;;5053963;28;20434;-42
2022/07/29 08:43:27;;;;;;;3.15;1.77;;;26.50;56.60;;;;;;5048157;28;20065;-42
2022/07/29 08:45:53;;;;;;;4.55;1.88;;;26.50;56.60;;;;;;5052025;28;20155;-41
2022/07/29 08:48:23;;;;;;;3.17;1.85;;;26.50;56.60;;;;;;5052697;28;20037;-44
2022/07/29 08:50:54;;;;;;;3.38;1.90;;;26.50;56.60;;;;;;5058362;28;20024;-42
2022/07/29 08:53:21;;;;;;;2.10;1.60;;;26.50;56.50;;;;;;5052127;28;20538;-45
2022/07/29 08:55:49;;;;;;;3.25;2.15;;;26.50;56.50;;;;;;5051775;28;20283;-45
2022/07/29 08:58:16;;;;;;;5.20;1.63;;;26.50;56.50;;;;;;5051631;28;20064;-42
2022/07/29 09:00:53;;;;;;;3.33;1.70;;;26.50;56.50;;;;;;5050492;28;20039;-43
2022/07/29 09:03:22;;;;;;;2.47;1.67;;;26.50;56.50;;;;;;5052242;28;20112;-42
2022/07/29 09:05:48;;;;;;;3.10;1.65;;;26.60;56.70;;;;;;5051650;28;20021;-42
2022/07/29 09:08:15;;;;;;;6.03;2.13;;;26.60;56.70;;;;;;5050137;28;20078;-53
2022/07/29 09:10:41;;;;;;;3.00;1.88;;;26.60;56.60;;;;;;5050414;28;20621;-45
2022/07/29 09:13:07;;;;;;;5.78;2.10;;;26.50;56.40;;;;;;5052476;28;20028;-43
2022/07/29 09:15:32;;;;;;;4.55;1.83;;;26.60;56.60;;;;;;5051273;28;20021;-42
2022/07/29 09:17:59;;;;;;;3.15;1.40;;;26.60;56.50;;;;;;5050303;28;20064;-42
2022/07/29 09:20:26;;;;;;;5.03;1.80;;;26.60;56.50;;;;;;5051039;28;20029;-44
2022/07/29 09:22:53;;;;;;;6.38;1.90;;;26.60;56.40;;;;;;5052990;28;20032;-42
2022/07/29 09:25:39;;;;;;;5.20;1.90;;;26.60;56.60;;;;;;5051504;28;20488;-51
2022/07/29 09:28:16;;;;;;;3.20;1.90;;;26.60;56.30;;;;;;5049810;28;20021;-42
2022/07/29 09:30:57;;;;;;;4.43;1.65;;;26.60;56.20;;;;;;5049935;28;20068;-43
2022/07/29 09:33:30;;;;;;;2.75;1.90;;;26.60;56.10;;;;;;5049540;28;20081;-53
2022/07/29 09:36:03;;;;;;;2.72;1.90;;;26.60;56.00;;;;;;5050296;28;20123;-44
2022/07/29 09:38:28;;;;;;;4.95;2.33;;;26.60;55.80;;;;;;5049400;28;20033;-44
2022/07/29 09:40:59;;;;;;;3.25;2.10;;;26.60;55.70;;;;;;5051373;28;20029;-42
2022/07/29 09:43:25;;;;;;;5.30;1.98;;;26.60;55.70;;;;;;5045485;28;20051;-48
2022/07/29 09:45:51;;;;;;;4.10;1.95;;;26.60;55.30;;;;;;5051314;28;20029;-42
2022/07/29 09:48:18;;;;;;;3.25;1.80;;;26.60;55.20;;;;;;5050920;28;20445;-42
2022/07/29 09:50:46;;;;;;;1.70;1.60;;;26.60;55.20;;;;;;5050291;28;20029;-43
2022/07/29 09:53:28;;;;;;;4.78;1.90;;;26.60;55.30;;;;;;5050273;28;20056;-44
2022/07/29 09:55:54;;;;;;;5.18;1.98;;;26.60;55.30;;;;;;5051475;28;20036;-42
2022/07/29 09:58:22;;;;;;;3.63;2.00;;;26.60;55.40;;;;;;5050594;28;20110;-41
2022/07/29 10:00:49;;;;;;;5.40;2.15;;;26.60;55.80;;;;;;5050438;28;20032;-41
2022/07/29 10:03:16;;;;;;;5.65;2.05;;;26.70;55.60;;;;;;5050500;28;20037;-41
2022/07/29 10:05:42;;;;;;;4.78;1.90;;;26.70;55.60;;;;;;5050034;28;20083;-42
2022/07/29 10:08:10;;;;;;;6.97;2.80;;;26.70;55.50;;;;;;5051030;28;20036;-42
2022/07/29 10:10:38;;;;;;;5.65;2.25;;;26.70;55.50;;;;;;5049698;28;20076;-39
2022/07/29 10:13:12;;;;;;;5.20;2.05;;;26.70;55.70;;;;;;5051099;28;20033;-40
2022/07/29 10:15:44;;;;;;;5.05;2.00;;;26.70;55.50;;;;;;5049664;28;20386;-42
2022/07/29 10:18:11;;;;;;;8.38;2.55;;;26.70;55.70;;;;;;5051165;28;20029;-40
2022/07/29 10:20:38;;;;;;;4.32;2.30;;;26.70;55.50;;;;;;5049424;28;20474;-44
2022/07/29 10:23:04;;;;;;;5.45;2.03;;;26.70;55.50;;;;;;5045461;28;20033;-41
2022/07/29 10:25:30;;;;;;;2.70;1.85;;;26.70;55.40;;;;;;5049721;28;20474;-41
2022/07/29 10:27:56;;;;;;;5.05;2.05;;;26.70;55.40;;;;;;5050739;28;20044;-43
2022/07/29 10:30:25;;;;;;;4.80;2.40;;;26.70;55.50;;;;;;5050752;28;20040;-43
2022/07/29 10:33:28;;;;;;;3.88;2.38;;;26.70;55.30;;;;;;5052137;28;20029;-41
2022/07/29 10:36:21;;;;;;;6.25;2.63;;;26.70;55.50;;;;;;5038201;28;20049;-41
2022/07/29 10:39:08;;;;;;;8.52;4.13;;;26.70;55.20;;;;;;5046618;28;20029;-42
2022/07/29 10:41:40;;;;;;;7.72;3.63;;;26.80;55.20;;;;;;5047871;28;20130;-46
2022/07/29 10:44:12;;;;;;;7.15;2.80;;;26.80;54.90;;;;;;5048811;28;20115;-42
2022/07/29 10:46:40;;;;;;;4.53;2.50;;;26.90;54.90;;;;;;5049447;28;20078;-42
2022/07/29 10:49:12;;;;;;;7.05;2.60;;;26.90;55.10;;;;;;5047180;28;20112;-43
2022/07/29 10:51:55;;;;;;;4.50;2.60;;;26.90;56.10;;;;;;5048867;28;20499;-40
2022/07/29 10:54:39;;;;;;;5.63;2.85;;;26.90;56.70;;;;;;5049571;28;20045;-42
2022/07/29 10:57:12;;;;;;;9.73;3.30;;;27.00;56.50;;;;;;5049335;28;20100;-42
2022/07/29 10:59:38;;;;;;;7.55;2.78;;;27.00;57.00;;;;;;5042765;28;20525;-41
2022/07/29 11:02:32;;;;;;;4.07;2.30;;;27.00;56.50;;;;;;5049634;28;20029;-42
2022/07/29 11:04:58;;;;;;;4.78;2.70;;;27.10;56.30;;;;;;5047166;28;20448;-43
2022/07/29 11:07:29;;;;;;;5.47;2.42;;;27.10;56.20;;;;;;5048336;28;20033;-51
2022/07/29 11:10:13;;;;;;;4.10;2.30;;;27.20;56.00;;;;;;5036573;28;20041;-41
2022/07/29 11:12:38;;;;;;;5.63;2.55;;;27.30;55.80;;;;;;5027945;28;20552;-41
2022/07/29 11:15:21;;;;;;;4.38;2.20;;;27.30;56.50;;;;;;5027885;28;20041;-41
2022/07/29 11:17:53;;;;;;;4.53;2.95;;;27.30;56.20;;;;;;5022965;28;20033;-46
2022/07/29 11:20:44;;;;;;;4.80;2.47;;;27.30;56.20;;;;;;5028490;28;20061;-41
2022/07/29 11:23:28;;;;;;;2.60;2.33;;;27.40;55.70;;;;;;5029111;28;20026;-43
2022/07/29 11:26:25;;;;;;;4.60;2.60;;;27.30;55.90;;;;;;5023401;28;20295;-45
2022/07/29 11:29:05;;;;;;;5.53;2.85;;;27.40;55.90;;;;;;5031538;28;20057;-44
2022/07/29 11:31:34;;;;;;;2.97;2.45;;;27.40;55.60;;;;;;5027870;28;20037;-41
2022/07/29 11:34:18;;;;;;;5.28;2.60;;;27.50;55.70;;;;;;5032129;28;20026;-41
2022/07/29 11:37:12;;;;;;;4.85;2.83;;;27.50;55.60;;;;;;5032248;28;20465;-42
2022/07/29 11:39:56;;;;;;;11.00;2.72;;;27.50;55.90;;;;;;5030139;28;20038;-43
2022/07/29 11:42:24;;;;;;;6.68;2.33;;;27.50;55.60;;;;;;5032818;28;20029;-46
2022/07/29 11:45:02;;;;;;;4.85;2.28;;;27.60;55.90;;;;;;5031857;28;20490;-47
2022/07/29 11:47:30;;;;;;;3.90;2.42;;;27.60;55.70;;;;;;5032200;28;20030;-53
2022/07/29 11:49:57;;;;;;;5.90;2.33;;;27.60;55.50;;;;;;5025769;28;20410;-41
2022/07/29 11:52:31;;;;;;;6.10;2.95;;;27.60;55.80;;;;;;5032561;28;20021;-45
2022/07/29 11:55:01;;;;;;;10.75;2.90;;;27.70;55.70;;;;;;5031678;28;20032;-43
2022/07/29 11:57:27;;;;;;;7.22;2.63;;;27.70;55.70;;;;;;5027608;28;20042;-52
2022/07/29 11:59:55;;;;;;;5.30;2.08;;;27.70;55.80;;;;;;5032217;28;20493;-44
2022/07/29 12:02:20;;;;;;;6.35;3.20;;;27.70;55.80;;;;;;5031807;28;20037;-42
2022/07/29 12:04:56;;;;;;;5.15;2.78;;;27.70;55.70;;;;;;5030856;28;20186;-51
2022/07/29 12:07:33;;;;;;;3.30;2.67;;;27.60;55.60;;;;;;5032339;28;20091;-44
2022/07/29 12:09:59;;;;;;;3.83;2.22;;;27.60;55.80;;;;;;5041025;28;20058;-41
2022/07/29 12:12:25;;;;;;;4.05;2.72;;;27.70;55.90;;;;;;5057897;28;20057;-50
2022/07/29 12:14:52;;;;;;;5.30;2.50;;;27.70;55.90;;;;;;5062854;28;20031;-46
2022/07/29 12:17:32;;;;;;;3.83;2.40;;;27.70;55.80;;;;;;5055644;28;20516;-42
2022/07/29 12:19:59;;;;;;;5.85;3.15;;;27.70;55.90;;;;;;5051037;28;20025;-47
2022/07/29 12:22:33;;;;;;;3.60;2.03;;;27.60;55.80;;;;;;5053302;28;20045;-52
2022/07/29 12:25:07;;;;;;;3.72;2.08;;;27.70;55.90;;;;;;5051296;28;20358;-41
2022/07/29 12:27:32;;;;;;;3.55;2.47;;;27.70;55.80;;;;;;5057422;28;20498;-41
2022/07/29 12:30:00;;;;;;;5.32;2.13;;;27.70;55.80;;;;;;5061059;28;20063;-41
2022/07/29 12:32:55;;;;;;;6.00;2.65;;;27.70;55.80;;;;;;5062237;28;20045;-52
2022/07/29 12:35:21;;;;;;;6.85;2.15;;;27.80;55.50;;;;;;5030257;28;20050;-42
2022/07/29 12:37:51;;;;;;;3.15;2.10;;;27.80;55.60;;;;;;5044477;28;20063;-43
2022/07/29 12:40:18;;;;;;;3.47;2.28;;;27.70;55.70;;;;;;5056240;28;20067;-41
2022/07/29 12:43:17;;;;;;;2.03;1.67;;;27.70;55.60;;;;;;5053604;28;20037;-48
2022/07/29 12:45:56;;;;;;;6.28;2.60;;;27.70;55.70;;;;;;5014312;28;20040;-44
2022/07/29 12:48:36;;;;;;;3.63;2.13;;;27.70;55.60;;;;;;5048845;28;20508;-47
2022/07/29 12:51:04;;;;;;;5.30;1.98;;;27.70;55.80;;;;;;5052075;28;20073;-41
2022/07/29 12:53:30;;;;;;;4.10;1.80;;;27.70;55.90;;;;;;5056403;28;20428;-50
2022/07/29 12:55:59;;;;;;;4.60;1.98;;;27.70;55.80;;;;;;5073680;28;20067;-42
2022/07/29 12:58:30;;;;;;;3.65;2.40;;;27.70;55.70;;;;;;5079223;28;20048;-44
2022/07/29 13:01:04;;;;;;;5.72;2.60;;;27.70;55.50;;;;;;5071874;28;20036;-42
2022/07/29 13:03:46;;;;;;;3.22;1.80;;;27.70;55.40;;;;;;5072389;28;20032;-51